Time;durP1;ratioP1;P1;durP2;ratioP2;P2;SDS_P1;SDS_P2;PMS_P1;PMS_P2;Temp;Humidity;BMP_temperature;BMP_pressure;BME280_temperature;BME280_humidity;BME280_pressure;Samples;Min_cycle;Max_cycle;Signal;HPM_P1;HPM_P2
2023/10/23 00:02:16;;;;;;;0.50;0.50;;;;;;;;;;5045223;28;20124;-73
2023/10/23 00:04:42;;;;;;;0.60;0.60;;;;;;;;;;5053776;28;20032;-73
2023/10/23 00:07:08;;;;;;;0.55;0.55;;;;;;;;;;5051310;28;20071;-72
2023/10/23 00:09:34;;;;;;;0.45;0.30;;;;;;;;;;5053633;28;20028;-72
2023/10/23 00:12:00;;;;;;;0.55;0.43;;;;;;;;;;5055141;28;20021;-72
2023/10/23 00:14:26;;;;;;;0.38;0.30;;;;;;;;;;5053181;28;20502;-72
2023/10/23 00:16:53;;;;;;;0.40;0.40;;;;;;;;;;5053079;28;20044;-73
2023/10/23 00:19:19;;;;;;;0.68;0.60;;;;;;;;;;5049633;28;20025;-73
2023/10/23 00:21:45;;;;;;;0.65;0.60;;;;;;;;;;5037336;28;20099;-73
2023/10/23 00:24:11;;;;;;;0.40;0.40;;;;;;;;;;5053821;28;20116;-73
2023/10/23 00:26:37;;;;;;;0.60;0.60;;;;;;;;;;5061770;28;20013;-73
2023/10/23 00:29:03;;;;;;;0.30;0.30;;;;;;;;;;5053978;28;20025;-73
2023/10/23 00:31:30;;;;;;;0.55;0.40;;;;;;;;;;5053263;28;20044;-73
2023/10/23 00:33:56;;;;;;;0.32;0.32;;;;;;;;;;5053002;28;20045;-73
2023/10/23 00:36:22;;;;;;;0.70;0.50;;;;;;;;;;5053024;28;20017;-73
2023/10/23 00:38:48;;;;;;;0.57;0.52;;;;;;;;;;5047766;28;20036;-73
2023/10/23 00:41:14;;;;;;;0.82;0.50;;;;;;;;;;5052553;28;20029;-73
2023/10/23 00:43:40;;;;;;;0.50;0.50;;;;;;;;;;5052870;28;20375;-72
2023/10/23 00:46:16;;;;;;;0.43;0.43;;;;;;;;;;5060994;28;20499;-72
2023/10/23 00:48:42;;;;;;;0.38;0.38;;;;;;;;;;5058600;28;20029;-73
2023/10/23 00:51:11;;;;;;;0.32;0.32;;;;;;;;;;5043203;28;20168;-73
2023/10/23 00:53:38;;;;;;;0.60;0.60;;;;;;;;;;5044514;28;20028;-73
2023/10/23 00:56:05;;;;;;;0.28;0.28;;;;;;;;;;5053328;28;20040;-73
2023/10/23 00:58:33;;;;;;;0.60;0.60;;;;;;;;;;5052592;28;20036;-73
2023/10/23 01:01:02;;;;;;;0.30;0.30;;;;;;;;;;5051546;28;20029;-73
2023/10/23 01:03:28;;;;;;;0.40;0.40;;;;;;;;;;5052731;28;20029;-72
2023/10/23 01:05:54;;;;;;;0.20;0.20;;;;;;;;;;5052389;28;20355;-72
2023/10/23 01:08:20;;;;;;;0.68;0.40;;;;;;;;;;5052503;28;20021;-73
2023/10/23 01:10:46;;;;;;;0.35;0.35;;;;;;;;;;5046009;28;20094;-73
2023/10/23 01:13:13;;;;;;;0.40;0.30;;;;;;;;;;5052115;28;20178;-72
2023/10/23 01:15:40;;;;;;;0.47;0.47;;;;;;;;;;5053608;28;20021;-73
2023/10/23 01:18:06;;;;;;;0.30;0.30;;;;;;;;;;5053692;28;20430;-74
2023/10/23 01:20:32;;;;;;;0.22;0.22;;;;;;;;;;5045820;28;20026;-72
2023/10/23 01:22:59;;;;;;;0.40;0.30;;;;;;;;;;5041904;28;20499;-72
2023/10/23 01:25:25;;;;;;;0.47;0.30;;;;;;;;;;5052626;28;20025;-73
2023/10/23 01:27:51;;;;;;;0.30;0.30;;;;;;;;;;5054400;28;20025;-73
2023/10/23 01:30:17;;;;;;;0.30;0.30;;;;;;;;;;5057100;28;20103;-73
2023/10/23 01:32:43;;;;;;;0.57;0.40;;;;;;;;;;5056382;28;20021;-74
2023/10/23 01:35:13;;;;;;;0.20;0.20;;;;;;;;;;5055095;28;20071;-72
2023/10/23 01:37:42;;;;;;;0.20;0.20;;;;;;;;;;5057671;28;20040;-72
2023/10/23 01:40:09;;;;;;;0.40;0.25;;;;;;;;;;5064646;28;20020;-73
2023/10/23 01:42:35;;;;;;;0.20;0.20;;;;;;;;;;5052439;28;20520;-74
2023/10/23 01:45:01;;;;;;;0.40;0.40;;;;;;;;;;5063852;28;20425;-74
2023/10/23 01:47:27;;;;;;;0.30;0.30;;;;;;;;;;5064117;28;20017;-74
2023/10/23 01:49:54;;;;;;;0.20;0.20;;;;;;;;;;5054857;28;20029;-73
2023/10/23 01:52:20;;;;;;;0.28;0.28;;;;;;;;;;5051613;28;20013;-72
2023/10/23 01:54:46;;;;;;;0.20;0.20;;;;;;;;;;5062349;28;20037;-73
2023/10/23 01:57:13;;;;;;;0.13;0.13;;;;;;;;;;5056358;28;20408;-73
2023/10/23 01:59:39;;;;;;;0.20;0.20;;;;;;;;;;5056249;28;20032;-73
2023/10/23 02:02:05;;;;;;;0.30;0.30;;;;;;;;;;5055434;28;20158;-73
2023/10/23 02:04:32;;;;;;;0.30;0.30;;;;;;;;;;5054199;28;20086;-72
2023/10/23 02:06:58;;;;;;;0.30;0.30;;;;;;;;;;5055310;28;20434;-73
2023/10/23 02:09:24;;;;;;;0.50;0.50;;;;;;;;;;5054998;28;20021;-72
2023/10/23 02:11:50;;;;;;;0.30;0.30;;;;;;;;;;5052213;28;20036;-72
2023/10/23 02:14:16;;;;;;;0.80;0.57;;;;;;;;;;5055843;28;20025;-73
2023/10/23 02:16:42;;;;;;;0.50;0.38;;;;;;;;;;5054479;28;20021;-73
2023/10/23 02:19:08;;;;;;;0.52;0.52;;;;;;;;;;5055277;28;20025;-73
2023/10/23 02:21:35;;;;;;;0.50;0.50;;;;;;;;;;5062616;28;20037;-72
2023/10/23 02:24:01;;;;;;;0.38;0.38;;;;;;;;;;5046153;28;20039;-73
2023/10/23 02:26:27;;;;;;;0.40;0.40;;;;;;;;;;5053314;28;20013;-72
2023/10/23 02:28:54;;;;;;;0.43;0.43;;;;;;;;;;5053403;28;20507;-72
2023/10/23 02:31:20;;;;;;;0.38;0.35;;;;;;;;;;5045102;28;20080;-72
2023/10/23 02:33:46;;;;;;;0.22;0.22;;;;;;;;;;5053676;28;20057;-72
2023/10/23 02:36:12;;;;;;;0.52;0.50;;;;;;;;;;5062908;28;20391;-73
2023/10/23 02:38:38;;;;;;;0.40;0.40;;;;;;;;;;5055552;28;20021;-73
2023/10/23 02:41:04;;;;;;;0.65;0.50;;;;;;;;;;5055241;28;20106;-71
2023/10/23 02:43:30;;;;;;;0.30;0.30;;;;;;;;;;5049494;28;20025;-73
2023/10/23 02:46:00;;;;;;;0.30;0.30;;;;;;;;;;5054373;28;20395;-72
2023/10/23 02:48:26;;;;;;;0.40;0.40;;;;;;;;;;5054813;28;20364;-72
2023/10/23 02:50:53;;;;;;;0.68;0.47;;;;;;;;;;5045672;28;20097;-72
2023/10/23 02:53:19;;;;;;;0.68;0.60;;;;;;;;;;5041373;28;20021;-77
2023/10/23 02:55:45;;;;;;;0.60;0.60;;;;;;;;;;5054695;28;20080;-74
2023/10/23 02:58:11;;;;;;;0.50;0.50;;;;;;;;;;5051155;28;20025;-74
2023/10/23 03:00:38;;;;;;;0.40;0.40;;;;;;;;;;5037844;28;20021;-74
2023/10/23 03:03:05;;;;;;;0.50;0.50;;;;;;;;;;5043662;28;20021;-74
2023/10/23 03:05:31;;;;;;;0.50;0.50;;;;;;;;;;5050050;28;20029;-74
2023/10/23 03:07:57;;;;;;;0.40;0.40;;;;;;;;;;5054025;28;20029;-75
2023/10/23 03:10:23;;;;;;;0.50;0.50;;;;;;;;;;5043483;28;20033;-76
2023/10/23 03:12:49;;;;;;;0.40;0.40;;;;;;;;;;5054792;28;20032;-76
2023/10/23 03:15:16;;;;;;;0.20;0.20;;;;;;;;;;5044742;28;20025;-76
2023/10/23 03:17:42;;;;;;;0.43;0.40;;;;;;;;;;5054406;28;20031;-75
2023/10/23 03:20:09;;;;;;;0.40;0.30;;;;;;;;;;5052583;28;20450;-74
2023/10/23 03:22:35;;;;;;;0.98;0.50;;;;;;;;;;5033896;28;20353;-75
2023/10/23 03:25:01;;;;;;;0.40;0.35;;;;;;;;;;5051678;28;20130;-75
2023/10/23 03:27:27;;;;;;;0.30;0.30;;;;;;;;;;5053406;28;20013;-74
2023/10/23 03:29:53;;;;;;;0.40;0.40;;;;;;;;;;5054025;28;20024;-74
2023/10/23 03:32:19;;;;;;;0.30;0.30;;;;;;;;;;5054193;28;20009;-75
2023/10/23 03:34:45;;;;;;;0.45;0.40;;;;;;;;;;5044458;28;20029;-74
2023/10/23 03:37:11;;;;;;;0.28;0.28;;;;;;;;;;5051809;28;20032;-73
2023/10/23 03:39:38;;;;;;;0.22;0.22;;;;;;;;;;5053610;28;20021;-75
2023/10/23 03:42:04;;;;;;;0.28;0.28;;;;;;;;;;5053516;28;20071;-73
2023/10/23 03:44:30;;;;;;;0.38;0.38;;;;;;;;;;5053012;28;20052;-74
2023/10/23 03:46:56;;;;;;;0.50;0.50;;;;;;;;;;5050040;28;20025;-74
2023/10/23 03:49:23;;;;;;;0.45;0.40;;;;;;;;;;5056765;28;20095;-75
2023/10/23 03:51:49;;;;;;;0.38;0.38;;;;;;;;;;5040407;28;20025;-73
2023/10/23 03:54:16;;;;;;;0.30;0.30;;;;;;;;;;5044562;28;20059;-73
2023/10/23 03:56:42;;;;;;;0.40;0.35;;;;;;;;;;5051648;28;20025;-73
2023/10/23 03:59:08;;;;;;;0.50;0.38;;;;;;;;;;5053266;28;20388;-73
2023/10/23 04:01:34;;;;;;;0.35;0.32;;;;;;;;;;5051967;28;20067;-73
2023/10/23 04:04:00;;;;;;;0.30;0.30;;;;;;;;;;5051648;28;20129;-73
2023/10/23 04:06:26;;;;;;;0.30;0.30;;;;;;;;;;5050900;28;20023;-73
2023/10/23 04:08:52;;;;;;;0.98;0.60;;;;;;;;;;5052796;28;20025;-73
2023/10/23 04:11:19;;;;;;;0.30;0.30;;;;;;;;;;5052363;28;20013;-73
2023/10/23 04:13:45;;;;;;;0.30;0.30;;;;;;;;;;5052907;28;20032;-73
2023/10/23 04:16:12;;;;;;;0.30;0.30;;;;;;;;;;5044858;28;20034;-73
2023/10/23 04:18:38;;;;;;;0.30;0.30;;;;;;;;;;5051598;28;20378;-73
2023/10/23 04:21:08;;;;;;;0.30;0.30;;;;;;;;;;5043126;28;20090;-74
2023/10/23 04:23:35;;;;;;;0.25;0.25;;;;;;;;;;5037870;28;20116;-73
2023/10/23 04:26:01;;;;;;;0.47;0.47;;;;;;;;;;5054731;28;20373;-74
2023/10/23 04:28:27;;;;;;;0.30;0.30;;;;;;;;;;5052667;28;20526;-74
2023/10/23 04:30:55;;;;;;;0.20;0.15;;;;;;;;;;5062158;28;20036;-76
2023/10/23 04:33:21;;;;;;;0.52;0.30;;;;;;;;;;5063858;28;20017;-76
2023/10/23 04:35:57;;;;;;;0.50;0.30;;;;;;;;;;5071161;28;20029;-76
2023/10/23 04:38:24;;;;;;;0.28;0.28;;;;;;;;;;5065206;28;20032;-76
2023/10/23 04:40:52;;;;;;;0.30;0.30;;;;;;;;;;5066328;28;20040;-77
2023/10/23 04:43:19;;;;;;;0.40;0.40;;;;;;;;;;5061677;28;20025;-77
2023/10/23 04:45:45;;;;;;;0.40;0.32;;;;;;;;;;5060909;28;20116;-76
2023/10/23 04:48:12;;;;;;;0.35;0.35;;;;;;;;;;5040558;28;20036;-77
2023/10/23 04:50:39;;;;;;;0.45;0.45;;;;;;;;;;5045783;28;20014;-77
2023/10/23 04:53:05;;;;;;;0.40;0.40;;;;;;;;;;5055925;28;20017;-77
2023/10/23 04:55:35;;;;;;;0.30;0.30;;;;;;;;;;5035887;28;20030;-77
2023/10/23 04:58:02;;;;;;;0.30;0.20;;;;;;;;;;5038177;28;20092;-77
2023/10/23 05:00:28;;;;;;;0.35;0.35;;;;;;;;;;5036503;28;20028;-77
2023/10/23 05:02:54;;;;;;;0.30;0.30;;;;;;;;;;5036836;28;20029;-76
2023/10/23 05:05:21;;;;;;;0.70;0.40;;;;;;;;;;5035975;28;20087;-77
2023/10/23 05:07:47;;;;;;;0.77;0.30;;;;;;;;;;5044696;28;20175;-77
2023/10/23 05:10:13;;;;;;;0.20;0.20;;;;;;;;;;5055871;28;20085;-78
2023/10/23 05:12:40;;;;;;;0.60;0.30;;;;;;;;;;5054539;28;20021;-77
2023/10/23 05:15:08;;;;;;;0.30;0.30;;;;;;;;;;5067620;28;20029;-77
2023/10/23 05:17:34;;;;;;;0.30;0.30;;;;;;;;;;5060012;28;20488;-77
2023/10/23 05:20:01;;;;;;;1.02;0.60;;;;;;;;;;5044782;28;20084;-77
2023/10/23 05:22:27;;;;;;;0.40;0.40;;;;;;;;;;5067620;28;20078;-77
2023/10/23 05:24:53;;;;;;;0.25;0.25;;;;;;;;;;5078084;28;20075;-77
2023/10/23 05:27:20;;;;;;;0.30;0.30;;;;;;;;;;5067016;28;20021;-77
2023/10/23 05:29:46;;;;;;;0.20;0.20;;;;;;;;;;5067357;28;20089;-77
2023/10/23 05:32:12;;;;;;;0.63;0.30;;;;;;;;;;5064609;28;20036;-76
2023/10/23 05:34:41;;;;;;;0.20;0.20;;;;;;;;;;5072336;28;20024;-77
2023/10/23 05:37:07;;;;;;;0.20;0.20;;;;;;;;;;5086198;28;20040;-76
2023/10/23 05:39:34;;;;;;;0.30;0.30;;;;;;;;;;5062488;28;20028;-78
2023/10/23 05:42:05;;;;;;;0.85;0.55;;;;;;;;;;5069520;28;20029;-76
2023/10/23 05:44:31;;;;;;;0.77;0.43;;;;;;;;;;5070251;28;20052;-76
2023/10/23 05:46:57;;;;;;;0.30;0.30;;;;;;;;;;5067300;28;20029;-77
2023/10/23 05:49:24;;;;;;;0.70;0.70;;;;;;;;;;5065899;28;20112;-77
2023/10/23 05:51:50;;;;;;;0.30;0.30;;;;;;;;;;5065979;28;20032;-75
2023/10/23 05:54:16;;;;;;;0.40;0.40;;;;;;;;;;5065810;28;20032;-76
2023/10/23 05:56:45;;;;;;;0.50;0.50;;;;;;;;;;5068950;28;20085;-77
2023/10/23 05:59:12;;;;;;;0.90;0.70;;;;;;;;;;5072778;28;20023;-77
2023/10/23 06:01:38;;;;;;;0.40;0.40;;;;;;;;;;5063943;28;20025;-76
2023/10/23 06:04:04;;;;;;;0.40;0.40;;;;;;;;;;5068004;28;20056;-75
2023/10/23 06:06:33;;;;;;;0.20;0.20;;;;;;;;;;5069822;28;20058;-76
2023/10/23 06:08:59;;;;;;;0.40;0.40;;;;;;;;;;5070069;28;20092;-76
2023/10/23 06:11:26;;;;;;;0.30;0.30;;;;;;;;;;5067275;28;20075;-76
2023/10/23 06:13:52;;;;;;;0.40;0.40;;;;;;;;;;5064693;28;20550;-77
2023/10/23 06:16:18;;;;;;;0.38;0.38;;;;;;;;;;5066912;28;20025;-77
2023/10/23 06:18:44;;;;;;;0.35;0.20;;;;;;;;;;5071755;28;20021;-76
2023/10/23 06:21:10;;;;;;;0.28;0.28;;;;;;;;;;5060979;28;20028;-76
2023/10/23 06:23:37;;;;;;;0.30;0.30;;;;;;;;;;5055063;28;20020;-76
2023/10/23 06:26:04;;;;;;;0.40;0.40;;;;;;;;;;5058465;28;20299;-77
2023/10/23 06:28:30;;;;;;;0.40;0.40;;;;;;;;;;5062316;28;20072;-77
2023/10/23 06:30:56;;;;;;;0.30;0.30;;;;;;;;;;5063618;28;20013;-77
2023/10/23 06:33:23;;;;;;;0.50;0.50;;;;;;;;;;5060368;28;20047;-77
2023/10/23 06:36:03;;;;;;;0.40;0.40;;;;;;;;;;5064768;28;20028;-77
2023/10/23 06:38:29;;;;;;;0.38;0.30;;;;;;;;;;5062137;28;20098;-77
2023/10/23 06:40:55;;;;;;;0.40;0.30;;;;;;;;;;5060144;28;20055;-76
2023/10/23 06:43:21;;;;;;;0.35;0.35;;;;;;;;;;5048601;28;20447;-77
2023/10/23 06:45:48;;;;;;;0.50;0.50;;;;;;;;;;5040747;28;20030;-76
2023/10/23 06:48:15;;;;;;;0.70;0.47;;;;;;;;;;5043690;28;20044;-76
2023/10/23 06:50:47;;;;;;;0.32;0.32;;;;;;;;;;5062097;28;20039;-77
2023/10/23 06:53:15;;;;;;;0.73;0.73;;;;;;;;;;5053891;28;20057;-76
2023/10/23 06:55:51;;;;;;;1.30;0.63;;;;;;;;;;5061889;28;20021;-76
2023/10/23 06:58:19;;;;;;;0.82;0.70;;;;;;;;;;5050204;28;20026;-77
2023/10/23 07:00:45;;;;;;;0.98;0.98;;;;;;;;;;5041998;28;20049;-79
2023/10/23 07:03:11;;;;;;;0.95;0.70;;;;;;;;;;5040329;28;20530;-76
2023/10/23 07:05:37;;;;;;;0.88;0.70;;;;;;;;;;5038782;28;20083;-77
2023/10/23 07:08:04;;;;;;;0.77;0.70;;;;;;;;;;5041938;28;20507;-76
2023/10/23 07:10:36;;;;;;;0.85;0.80;;;;;;;;;;5040743;28;20120;-76
2023/10/23 07:13:03;;;;;;;1.08;0.88;;;;;;;;;;5039219;28;20032;-77
2023/10/23 07:15:29;;;;;;;0.75;0.75;;;;;;;;;;5042896;28;20028;-76
2023/10/23 07:17:55;;;;;;;1.42;0.88;;;;;;;;;;5042904;28;20025;-77
2023/10/23 07:20:22;;;;;;;1.42;0.90;;;;;;;;;;5048229;28;20061;-76
2023/10/23 07:22:48;;;;;;;2.25;0.75;;;;;;;;;;5062099;28;20048;-76
2023/10/23 07:25:14;;;;;;;1.45;1.00;;;;;;;;;;5060959;28;20475;-76
2023/10/23 07:27:40;;;;;;;3.65;1.20;;;;;;;;;;5061495;28;20020;-77
2023/10/23 07:30:07;;;;;;;0.82;0.82;;;;;;;;;;5061078;28;20033;-76
2023/10/23 07:32:35;;;;;;;1.77;0.95;;;;;;;;;;5061684;28;20032;-76
2023/10/23 07:35:03;;;;;;;1.27;1.15;;;;;;;;;;5064851;28;20021;-76
2023/10/23 07:37:29;;;;;;;0.98;0.73;;;;;;;;;;5066699;28;20021;-76
2023/10/23 07:39:57;;;;;;;0.88;0.85;;;;;;;;;;5051517;28;20040;-75
2023/10/23 07:42:23;;;;;;;0.80;0.80;;;;;;;;;;5046280;28;20064;-76
2023/10/23 07:44:49;;;;;;;1.02;0.60;;;;;;;;;;5047538;28;20104;-76
2023/10/23 07:47:15;;;;;;;1.17;1.05;;;;;;;;;;5046680;28;20025;-76
2023/10/23 07:49:41;;;;;;;1.15;0.82;;;;;;;;;;5056490;28;20033;-75
2023/10/23 07:52:08;;;;;;;0.90;0.77;;;;;;;;;;5059168;28;20029;-76
2023/10/23 07:54:34;;;;;;;1.58;1.10;;;;;;;;;;5064025;28;20017;-76
2023/10/23 07:57:00;;;;;;;1.40;1.25;;;;;;;;;;5065453;28;20067;-77
2023/10/23 07:59:26;;;;;;;1.85;1.00;;;;;;;;;;5063517;28;20055;-76
2023/10/23 08:01:52;;;;;;;0.85;0.73;;;;;;;;;;5063470;28;20039;-77
2023/10/23 08:04:18;;;;;;;1.05;0.95;;;;;;;;;;5061717;28;20044;-75
2023/10/23 08:06:45;;;;;;;0.80;0.73;;;;;;;;;;5066178;28;20383;-76
2023/10/23 08:09:11;;;;;;;1.45;0.90;;;;;;;;;;5063125;28;20029;-77
2023/10/23 08:11:37;;;;;;;1.05;0.93;;;;;;;;;;5042717;28;20383;-75
2023/10/23 08:14:04;;;;;;;1.00;0.98;;;;;;;;;;5042571;28;20024;-76
2023/10/23 08:16:30;;;;;;;1.25;0.93;;;;;;;;;;5050826;28;20021;-75
2023/10/23 08:18:57;;;;;;;2.58;1.17;;;;;;;;;;5049046;28;20025;-76
2023/10/23 08:21:25;;;;;;;0.68;0.68;;;;;;;;;;5058820;28;20021;-74
2023/10/23 08:23:56;;;;;;;0.88;0.73;;;;;;;;;;5064279;28;20020;-77
2023/10/23 08:26:23;;;;;;;0.75;0.75;;;;;;;;;;5060906;28;20027;-77
2023/10/23 08:28:49;;;;;;;0.70;0.70;;;;;;;;;;5060519;28;20031;-77
2023/10/23 08:31:15;;;;;;;0.80;0.80;;;;;;;;;;5060444;28;20029;-78
2023/10/23 08:33:41;;;;;;;1.05;0.95;;;;;;;;;;5066558;28;20553;-78
2023/10/23 08:36:07;;;;;;;1.85;0.80;;;;;;;;;;5064076;28;20108;-76
2023/10/23 08:38:34;;;;;;;1.42;0.60;;;;;;;;;;5061906;28;20025;-77
2023/10/23 08:41:03;;;;;;;1.67;0.93;;;;;;;;;;5054489;28;20033;-77
2023/10/23 08:43:29;;;;;;;0.57;0.57;;;;;;;;;;5039883;28;20025;-76
2023/10/23 08:45:55;;;;;;;0.68;0.68;;;;;;;;;;5040929;28;20085;-77
2023/10/23 08:48:21;;;;;;;0.35;0.35;;;;;;;;;;5042299;28;20068;-77
2023/10/23 08:50:48;;;;;;;1.02;0.90;;;;;;;;;;5053256;28;20040;-77
2023/10/23 08:53:15;;;;;;;0.65;0.65;;;;;;;;;;5067045;28;20017;-77
2023/10/23 08:55:42;;;;;;;1.63;1.00;;;;;;;;;;5065500;28;20344;-76
2023/10/23 08:58:09;;;;;;;0.88;0.50;;;;;;;;;;5060779;28;20021;-76
2023/10/23 09:00:35;;;;;;;1.17;0.68;;;;;;;;;;5061610;28;20032;-78
2023/10/23 09:03:03;;;;;;;0.50;0.50;;;;;;;;;;5060625;28;20180;-76
2023/10/23 09:05:29;;;;;;;0.75;0.60;;;;;;;;;;5059801;28;20029;-76
2023/10/23 09:07:55;;;;;;;0.80;0.68;;;;;;;;;;5061386;28;20025;-77
2023/10/23 09:10:21;;;;;;;0.70;0.70;;;;;;;;;;5062281;28;20021;-76
2023/10/23 09:12:54;;;;;;;0.68;0.50;;;;;;;;;;5061393;28;20032;-78
2023/10/23 09:15:21;;;;;;;0.50;0.50;;;;;;;;;;5062113;28;20036;-77
2023/10/23 09:17:51;;;;;;;0.88;0.65;;;;;;;;;;5062659;28;20029;-76
2023/10/23 09:20:19;;;;;;;1.48;0.88;;;;;;;;;;5062544;28;20033;-77
2023/10/23 09:22:49;;;;;;;0.63;0.50;;;;;;;;;;5063668;28;20028;-77
2023/10/23 09:25:22;;;;;;;1.80;0.90;;;;;;;;;;5060201;28;20025;-76
2023/10/23 09:27:48;;;;;;;0.70;0.68;;;;;;;;;;5062397;28;20178;-77
2023/10/23 09:30:23;;;;;;;0.60;0.60;;;;;;;;;;5064723;28;20017;-77
2023/10/23 09:32:51;;;;;;;0.43;0.43;;;;;;;;;;5060582;28;20029;-76
2023/10/23 09:35:17;;;;;;;0.50;0.50;;;;;;;;;;5051498;28;20049;-77
2023/10/23 09:37:43;;;;;;;0.50;0.50;;;;;;;;;;5044146;28;20028;-76
2023/10/23 09:40:13;;;;;;;1.08;0.68;;;;;;;;;;5043605;28;20034;-76
2023/10/23 09:42:40;;;;;;;1.02;0.43;;;;;;;;;;5046027;28;20036;-76
2023/10/23 09:45:06;;;;;;;0.50;0.50;;;;;;;;;;5062278;28;20052;-77
2023/10/23 09:47:35;;;;;;;3.15;1.10;;;;;;;;;;5060756;28;20033;-76
2023/10/23 09:50:04;;;;;;;1.23;0.73;;;;;;;;;;5062349;28;20060;-76
2023/10/23 09:52:32;;;;;;;1.65;0.70;;;;;;;;;;5064317;28;20056;-76
2023/10/23 09:55:03;;;;;;;0.63;0.50;;;;;;;;;;5064477;28;20029;-76
2023/10/23 09:57:51;;;;;;;0.50;0.50;;;;;;;;;;5065638;28;20048;-77
2023/10/23 10:00:17;;;;;;;0.63;0.45;;;;;;;;;;5067384;28;20040;-76
2023/10/23 10:02:49;;;;;;;0.88;0.40;;;;;;;;;;5067630;28;20036;-76
2023/10/23 10:05:18;;;;;;;0.70;0.50;;;;;;;;;;5048977;28;20029;-77
2023/10/23 10:07:58;;;;;;;1.55;0.60;;;;;;;;;;5049272;28;20021;-77
2023/10/23 10:10:26;;;;;;;1.13;0.52;;;;;;;;;;5047438;28;20021;-77
2023/10/23 10:12:53;;;;;;;0.55;0.55;;;;;;;;;;5048133;28;20041;-76
2023/10/23 10:15:19;;;;;;;0.40;0.40;;;;;;;;;;5063759;28;20029;-77
2023/10/23 10:17:46;;;;;;;0.32;0.32;;;;;;;;;;5066830;28;20036;-76
2023/10/23 10:20:12;;;;;;;0.50;0.50;;;;;;;;;;5070463;28;20025;-77
2023/10/23 10:22:45;;;;;;;0.30;0.30;;;;;;;;;;5065842;28;20053;-77
2023/10/23 10:25:12;;;;;;;1.25;0.55;;;;;;;;;;5049316;28;20034;-75
2023/10/23 10:27:38;;;;;;;0.30;0.30;;;;;;;;;;5049045;28;20372;-75
2023/10/23 10:30:05;;;;;;;0.28;0.28;;;;;;;;;;5047822;28;20104;-76
2023/10/23 10:32:33;;;;;;;0.63;0.50;;;;;;;;;;5050746;28;20049;-76
2023/10/23 10:35:03;;;;;;;0.40;0.40;;;;;;;;;;5045536;28;20026;-76
2023/10/23 10:37:32;;;;;;;0.85;0.85;;;;;;;;;;5059199;28;20032;-76
2023/10/23 10:39:58;;;;;;;1.27;1.17;;;;;;;;;;5069573;28;20036;-77
2023/10/23 10:42:26;;;;;;;1.65;0.98;;;;;;;;;;5073950;28;20009;-75
2023/10/23 10:44:55;;;;;;;1.63;1.40;;;;;;;;;;5074174;28;20032;-77
2023/10/23 10:47:22;;;;;;;0.95;0.95;;;;;;;;;;5068468;28;20025;-76
2023/10/23 10:49:48;;;;;;;1.45;0.98;;;;;;;;;;5067517;28;20045;-76
2023/10/23 10:52:27;;;;;;;1.88;1.27;;;;;;;;;;5068946;28;20506;-77
2023/10/23 10:54:57;;;;;;;1.08;1.02;;;;;;;;;;5065999;28;20090;-76
2023/10/23 10:57:23;;;;;;;0.90;0.90;;;;;;;;;;5064215;28;20533;-75
2023/10/23 10:59:54;;;;;;;0.93;0.90;;;;;;;;;;5063999;28;20033;-75
2023/10/23 11:02:20;;;;;;;1.23;0.88;;;;;;;;;;5071311;28;20025;-76
2023/10/23 11:04:47;;;;;;;0.93;0.90;;;;;;;;;;5069977;28;20040;-75
2023/10/23 11:07:13;;;;;;;0.95;0.70;;;;;;;;;;5066262;28;20028;-77
2023/10/23 11:09:41;;;;;;;0.70;0.70;;;;;;;;;;5067731;28;20509;-76
2023/10/23 11:12:07;;;;;;;0.73;0.60;;;;;;;;;;5066858;28;20020;-75
2023/10/23 11:14:33;;;;;;;0.65;0.55;;;;;;;;;;5068066;28;20406;-76
2023/10/23 11:16:59;;;;;;;0.55;0.55;;;;;;;;;;5070390;28;20025;-75
2023/10/23 11:19:26;;;;;;;1.85;0.50;;;;;;;;;;5050712;28;20041;-76
2023/10/23 11:22:06;;;;;;;0.52;0.52;;;;;;;;;;5058333;28;20095;-76
2023/10/23 11:24:32;;;;;;;0.82;0.82;;;;;;;;;;5064097;28;20384;-76
2023/10/23 11:26:58;;;;;;;0.50;0.50;;;;;;;;;;5064739;28;20025;-76
2023/10/23 11:29:24;;;;;;;1.13;0.40;;;;;;;;;;5065997;28;20070;-76
2023/10/23 11:31:52;;;;;;;0.75;0.75;;;;;;;;;;5062494;28;20040;-77
2023/10/23 11:34:18;;;;;;;0.95;0.65;;;;;;;;;;5066118;28;20028;-77
2023/10/23 11:36:47;;;;;;;0.85;0.65;;;;;;;;;;5066419;28;20025;-76
2023/10/23 11:39:18;;;;;;;1.85;0.90;;;;;;;;;;5057294;28;20024;-77
2023/10/23 11:41:54;;;;;;;0.50;0.50;;;;;;;;;;5041802;28;20037;-77
2023/10/23 11:44:21;;;;;;;0.60;0.60;;;;;;;;;;5042642;28;20028;-77
2023/10/23 11:46:47;;;;;;;1.13;0.40;;;;;;;;;;5045809;28;20029;-77
2023/10/23 11:49:14;;;;;;;0.60;0.60;;;;;;;;;;5050959;28;20082;-76
2023/10/23 11:51:40;;;;;;;0.57;0.55;;;;;;;;;;5064375;28;20028;-77
2023/10/23 11:54:06;;;;;;;0.50;0.50;;;;;;;;;;5067085;28;20021;-76
2023/10/23 11:56:32;;;;;;;0.80;0.50;;;;;;;;;;5067376;28;20078;-76
2023/10/23 11:59:00;;;;;;;0.88;0.75;;;;;;;;;;5067882;28;20087;-76
2023/10/23 12:01:26;;;;;;;0.77;0.70;;;;;;;;;;5045953;28;20022;-76
2023/10/23 12:03:52;;;;;;;1.00;0.75;;;;;;;;;;5046293;28;20029;-76
2023/10/23 12:06:18;;;;;;;1.65;0.70;;;;;;;;;;5045069;28;20488;-77
2023/10/23 12:08:44;;;;;;;0.63;0.45;;;;;;;;;;5045925;28;20049;-76
2023/10/23 12:11:10;;;;;;;0.60;0.60;;;;;;;;;;5058818;28;20048;-78
2023/10/23 12:13:36;;;;;;;0.65;0.30;;;;;;;;;;5068758;28;20025;-76
2023/10/23 12:16:04;;;;;;;0.40;0.40;;;;;;;;;;5065515;28;20077;-76
2023/10/23 12:18:30;;;;;;;0.98;0.47;;;;;;;;;;5064956;28;20053;-75
2023/10/23 12:20:56;;;;;;;0.35;0.35;;;;;;;;;;5064962;28;20029;-76
2023/10/23 12:23:22;;;;;;;0.68;0.55;;;;;;;;;;5066040;28;20029;-76
2023/10/23 12:25:48;;;;;;;0.63;0.60;;;;;;;;;;5067061;28;20029;-77
2023/10/23 12:28:14;;;;;;;0.60;0.60;;;;;;;;;;5064562;28;20021;-76
2023/10/23 12:30:40;;;;;;;0.40;0.40;;;;;;;;;;5065108;28;20029;-76
2023/10/23 12:33:06;;;;;;;0.65;0.43;;;;;;;;;;5063953;28;20028;-75
2023/10/23 12:35:32;;;;;;;0.50;0.50;;;;;;;;;;5062456;28;20391;-75
2023/10/23 12:37:58;;;;;;;0.50;0.50;;;;;;;;;;5062591;28;20036;-76
2023/10/23 12:40:25;;;;;;;0.57;0.57;;;;;;;;;;5063402;28;20101;-75
2023/10/23 12:42:51;;;;;;;1.42;0.80;;;;;;;;;;5045127;28;20029;-77
2023/10/23 12:45:17;;;;;;;0.73;0.50;;;;;;;;;;5045751;28;20499;-76
2023/10/23 12:47:43;;;;;;;1.20;0.95;;;;;;;;;;5047275;28;20022;-77
2023/10/23 12:50:09;;;;;;;0.93;0.77;;;;;;;;;;5048925;28;20016;-76
2023/10/23 12:52:36;;;;;;;1.20;0.70;;;;;;;;;;5066576;28;20025;-77
2023/10/23 12:55:04;;;;;;;0.63;0.57;;;;;;;;;;5065919;28;20017;-75
2023/10/23 12:57:31;;;;;;;0.50;0.50;;;;;;;;;;5071510;28;20036;-77
2023/10/23 12:59:57;;;;;;;0.60;0.60;;;;;;;;;;5066801;28;20025;-77
2023/10/23 13:02:23;;;;;;;0.82;0.70;;;;;;;;;;5062150;28;20070;-76
2023/10/23 13:04:49;;;;;;;0.60;0.60;;;;;;;;;;5063310;28;20025;-78
2023/10/23 13:07:15;;;;;;;0.68;0.68;;;;;;;;;;5062939;28;20021;-77
2023/10/23 13:09:41;;;;;;;1.20;0.60;;;;;;;;;;5064274;28;20021;-76
2023/10/23 13:12:07;;;;;;;0.93;0.80;;;;;;;;;;5054904;28;20036;-78
2023/10/23 13:14:34;;;;;;;1.42;1.00;;;;;;;;;;5042273;28;20030;-78
2023/10/23 13:17:00;;;;;;;3.08;0.70;;;;;;;;;;5040814;28;20041;-77
2023/10/23 13:19:26;;;;;;;1.90;0.70;;;;;;;;;;5043079;28;20052;-77
2023/10/23 13:21:52;;;;;;;1.05;0.90;;;;;;;;;;5059573;28;20045;-78
2023/10/23 13:24:18;;;;;;;0.63;0.40;;;;;;;;;;5061695;28;20032;-77
2023/10/23 13:26:44;;;;;;;3.05;1.13;;;;;;;;;;5059851;28;20024;-77
2023/10/23 13:29:10;;;;;;;1.35;1.05;;;;;;;;;;5058578;28;20025;-78
2023/10/23 13:31:37;;;;;;;2.45;1.30;;;;;;;;;;5059876;28;20020;-78
2023/10/23 13:34:03;;;;;;;1.33;0.75;;;;;;;;;;5060951;28;20026;-77
2023/10/23 13:36:29;;;;;;;0.55;0.50;;;;;;;;;;5063599;28;20296;-77
2023/10/23 13:38:55;;;;;;;0.65;0.65;;;;;;;;;;5066397;28;20094;-77
2023/10/23 13:41:21;;;;;;;0.47;0.47;;;;;;;;;;5054945;28;20033;-77
2023/10/23 13:43:47;;;;;;;0.70;0.70;;;;;;;;;;5057488;28;20024;-77
2023/10/23 13:46:15;;;;;;;0.80;0.80;;;;;;;;;;5065173;28;20071;-76
2023/10/23 13:48:41;;;;;;;2.22;0.88;;;;;;;;;;5064981;28;20027;-79
2023/10/23 13:51:09;;;;;;;0.80;0.57;;;;;;;;;;5065608;28;20023;-78
2023/10/23 13:53:35;;;;;;;0.70;0.70;;;;;;;;;;5061679;28;20028;-79
2023/10/23 13:56:01;;;;;;;0.63;0.63;;;;;;;;;;5064965;28;20036;-78
2023/10/23 13:58:27;;;;;;;1.00;0.70;;;;;;;;;;5064159;28;20044;-79
2023/10/23 14:00:53;;;;;;;2.90;0.80;;;;;;;;;;5064608;28;20031;-77
2023/10/23 14:03:19;;;;;;;1.33;0.70;;;;;;;;;;5062605;28;20024;-77
2023/10/23 14:05:45;;;;;;;1.10;1.00;;;;;;;;;;5062438;28;20037;-77
2023/10/23 14:08:12;;;;;;;1.48;1.05;;;;;;;;;;5064769;28;20029;-77
2023/10/23 14:10:39;;;;;;;1.30;0.90;;;;;;;;;;5063382;28;20027;-77
2023/10/23 14:13:05;;;;;;;0.65;0.60;;;;;;;;;;5061418;28;20054;-78
2023/10/23 14:15:31;;;;;;;1.10;0.95;;;;;;;;;;5061943;28;20032;-77
2023/10/23 14:17:57;;;;;;;2.65;1.38;;;;;;;;;;5063505;28;20025;-77
2023/10/23 14:20:23;;;;;;;1.42;0.80;;;;;;;;;;5066189;28;20028;-76
2023/10/23 14:22:49;;;;;;;1.38;0.93;;;;;;;;;;5063898;28;20029;-77
2023/10/23 14:25:15;;;;;;;1.60;1.02;;;;;;;;;;5066052;28;20044;-77
2023/10/23 14:27:42;;;;;;;1.65;0.88;;;;;;;;;;5067052;28;20138;-78
2023/10/23 14:30:08;;;;;;;1.10;0.90;;;;;;;;;;5078070;28;20036;-76
2023/10/23 14:32:38;;;;;;;0.93;0.70;;;;;;;;;;5074901;28;20029;-77
2023/10/23 14:35:05;;;;;;;0.57;0.50;;;;;;;;;;5059932;28;20045;-78
2023/10/23 14:37:31;;;;;;;0.80;0.70;;;;;;;;;;5045273;28;20071;-77
2023/10/23 14:39:57;;;;;;;1.27;0.90;;;;;;;;;;5041887;28;20025;-78
2023/10/23 14:42:23;;;;;;;0.68;0.65;;;;;;;;;;5042029;28;20388;-79